Time;durP1;ratioP1;P1;durP2;ratioP2;P2;SDS_P1;SDS_P2;PMS_P1;PMS_P2;Temp;Humidity;BMP_temperature;BMP_pressure;BME280_temperature;BME280_humidity;BME280_pressure;Samples;Min_cycle;Max_cycle;Signal;HPM_P1;HPM_P2
2023/06/20 00:00:49;;;;;;;25.93;24.40;;;;;;;;;;5055116;28;20474;-79
2023/06/20 00:03:16;;;;;;;25.73;24.23;;;;;;;;;;5054980;28;20508;-79
2023/06/20 00:05:43;;;;;;;26.07;24.20;;;;;;;;;;5054614;28;20413;-79
2023/06/20 00:08:10;;;;;;;25.67;24.13;;;;;;;;;;5055053;28;20491;-80
2023/06/20 00:10:37;;;;;;;26.73;25.20;;;;;;;;;;5054065;28;20513;-80
2023/06/20 00:13:04;;;;;;;27.13;25.43;;;;;;;;;;5054435;28;20501;-80
2023/06/20 00:15:32;;;;;;;26.60;25.10;;;;;;;;;;5055341;28;20487;-80
2023/06/20 00:18:00;;;;;;;25.30;23.80;;;;;;;;;;5055593;28;20942;-81
2023/06/20 00:20:27;;;;;;;26.83;25.33;;;;;;;;;;5056839;28;21017;-80
2023/06/20 00:22:54;;;;;;;26.80;25.10;;;;;;;;;;5056887;28;20489;-81
2023/06/20 00:25:21;;;;;;;26.37;24.87;;;;;;;;;;5056464;28;21093;-79
2023/06/20 00:27:48;;;;;;;26.80;25.30;;;;;;;;;;5056767;28;20429;-79
2023/06/20 00:30:15;;;;;;;27.47;25.80;;;;;;;;;;5056801;28;20493;-78
2023/06/20 00:32:44;;;;;;;27.20;25.33;;;;;;;;;;5056163;28;20996;-78
2023/06/20 00:35:11;;;;;;;26.30;24.67;;;;;;;;;;5054635;28;20482;-79
2023/06/20 00:37:38;;;;;;;25.90;24.50;;;;;;;;;;5055733;28;21009;-79
2023/06/20 00:40:07;;;;;;;27.33;25.50;;;;;;;;;;5056111;28;21231;-79
2023/06/20 00:42:34;;;;;;;26.50;24.83;;;;;;;;;;5057450;28;20859;-79
2023/06/20 00:45:01;;;;;;;27.43;25.83;;;;;;;;;;5057182;28;20463;-80
2023/06/20 00:47:28;;;;;;;27.97;26.13;;;;;;;;;;5056660;28;20763;-79
2023/06/20 00:49:57;;;;;;;26.73;25.10;;;;;;;;;;5056604;28;20585;-80
2023/06/20 00:52:25;;;;;;;27.67;26.07;;;;;;;;;;5055623;28;20421;-82
2023/06/20 00:54:52;;;;;;;25.83;24.40;;;;;;;;;;5055078;28;20441;-81
2023/06/20 00:57:20;;;;;;;26.33;24.83;;;;;;;;;;5055139;28;20468;-80
2023/06/20 00:59:47;;;;;;;26.50;24.97;;;;;;;;;;5055444;28;20528;-80
2023/06/20 01:02:14;;;;;;;26.57;24.87;;;;;;;;;;5056626;28;20417;-80
2023/06/20 01:04:42;;;;;;;27.07;25.47;;;;;;;;;;5071032;28;20493;-80
2023/06/20 01:07:14;;;;;;;26.77;25.13;;;;;;;;;;5075522;28;20447;-80
2023/06/20 01:09:52;;;;;;;26.23;24.60;;;;;;;;;;5070209;28;20462;-80
2023/06/20 01:12:23;;;;;;;26.93;25.13;;;;;;;;;;5067637;28;20430;-80
2023/06/20 01:14:53;;;;;;;26.77;25.07;;;;;;;;;;5058318;28;20453;-81
2023/06/20 01:17:23;;;;;;;26.03;24.43;;;;;;;;;;5057569;28;20731;-80
2023/06/20 01:19:53;;;;;;;26.90;25.10;;;;;;;;;;5058051;28;20458;-80
2023/06/20 01:22:31;;;;;;;27.00;25.40;;;;;;;;;;5057145;28;20504;-80
2023/06/20 01:24:59;;;;;;;26.63;25.03;;;;;;;;;;5057777;28;20421;-80
2023/06/20 01:27:29;;;;;;;27.07;25.37;;;;;;;;;;5057030;28;20471;-78
2023/06/20 01:30:00;;;;;;;26.37;24.87;;;;;;;;;;5058467;28;20463;-78
2023/06/20 01:32:28;;;;;;;26.70;25.17;;;;;;;;;;5056902;28;20441;-79
2023/06/20 01:34:58;;;;;;;25.43;23.93;;;;;;;;;;5057281;28;20974;-77
2023/06/20 01:37:26;;;;;;;27.40;25.70;;;;;;;;;;5056990;28;20436;-79
2023/06/20 01:39:55;;;;;;;27.23;25.60;;;;;;;;;;5057209;28;20433;-78
2023/06/20 01:42:24;;;;;;;27.87;26.17;;;;;;;;;;5056978;28;20575;-80
2023/06/20 01:44:53;;;;;;;26.63;25.03;;;;;;;;;;5058259;28;20821;-80
2023/06/20 01:47:20;;;;;;;26.47;24.97;;;;;;;;;;5058544;28;20417;-79
2023/06/20 01:49:51;;;;;;;26.83;25.33;;;;;;;;;;5058923;28;20466;-79
2023/06/20 01:52:18;;;;;;;26.37;24.87;;;;;;;;;;5059119;28;20417;-80
2023/06/20 01:54:46;;;;;;;26.20;24.70;;;;;;;;;;5058997;28;20468;-79
2023/06/20 01:57:15;;;;;;;26.67;25.07;;;;;;;;;;5058278;28;20479;-79
2023/06/20 01:59:43;;;;;;;26.13;24.67;;;;;;;;;;5058109;28;20442;-79
2023/06/20 02:02:10;;;;;;;26.63;25.10;;;;;;;;;;5058231;28;20455;-80
2023/06/20 02:04:37;;;;;;;25.63;24.13;;;;;;;;;;5057973;28;20465;-79
2023/06/20 02:07:05;;;;;;;26.37;24.77;;;;;;;;;;5059303;28;20447;-79
2023/06/20 02:09:33;;;;;;;27.07;25.37;;;;;;;;;;5077291;28;20924;-79
2023/06/20 02:12:01;;;;;;;26.23;24.80;;;;;;;;;;5076983;28;20481;-79
2023/06/20 02:14:29;;;;;;;27.00;25.50;;;;;;;;;;5077708;28;20438;-79
2023/06/20 02:17:00;;;;;;;26.77;25.20;;;;;;;;;;5077022;28;20472;-79
2023/06/20 02:19:27;;;;;;;27.13;25.50;;;;;;;;;;5077401;28;20417;-79
2023/06/20 02:21:56;;;;;;;26.90;25.30;;;;;;;;;;5077347;28;20429;-79
2023/06/20 02:24:26;;;;;;;27.97;26.37;;;;;;;;;;5076937;28;20486;-79
2023/06/20 02:26:53;;;;;;;26.90;25.40;;;;;;;;;;5076358;28;20870;-79
2023/06/20 02:29:20;;;;;;;27.07;25.57;;;;;;;;;;5076900;28;20936;-80
2023/06/20 02:31:50;;;;;;;27.27;25.77;;;;;;;;;;5089669;28;20429;-79
2023/06/20 02:34:20;;;;;;;26.80;25.30;;;;;;;;;;5098919;28;20442;-79
2023/06/20 02:36:47;;;;;;;26.60;25.20;;;;;;;;;;5099305;28;20434;-79
2023/06/20 02:39:15;;;;;;;27.40;24.97;;;;;;;;;;5089086;28;20855;-80
2023/06/20 02:41:42;;;;;;;26.60;25.20;;;;;;;;;;5077431;28;20874;-79
2023/06/20 02:44:09;;;;;;;27.60;26.10;;;;;;;;;;5077641;28;20512;-79
2023/06/20 02:46:41;;;;;;;26.90;25.43;;;;;;;;;;5076993;28;20472;-80
2023/06/20 02:49:15;;;;;;;26.90;25.40;;;;;;;;;;5077560;28;20976;-80
2023/06/20 02:51:46;;;;;;;26.70;25.27;;;;;;;;;;5076391;28;20585;-79
2023/06/20 02:54:16;;;;;;;25.90;24.50;;;;;;;;;;5077307;28;20396;-80
2023/06/20 02:56:44;;;;;;;27.30;25.70;;;;;;;;;;5076365;28;20420;-79
2023/06/20 02:59:12;;;;;;;26.53;25.03;;;;;;;;;;5076592;28;20441;-78
2023/06/20 03:01:41;;;;;;;27.00;25.40;;;;;;;;;;5075526;28;20478;-79
2023/06/20 03:04:08;;;;;;;25.97;24.33;;;;;;;;;;5076140;28;20477;-79
2023/06/20 03:06:37;;;;;;;26.87;25.33;;;;;;;;;;5075478;28;20447;-79
2023/06/20 03:09:05;;;;;;;27.03;25.43;;;;;;;;;;5076572;28;20500;-79
2023/06/20 03:11:32;;;;;;;27.10;25.50;;;;;;;;;;5076060;28;20444;-79
2023/06/20 03:14:01;;;;;;;26.37;24.87;;;;;;;;;;5076016;28;20467;-79
2023/06/20 03:16:28;;;;;;;27.17;25.57;;;;;;;;;;5075105;28;21020;-79
2023/06/20 03:18:56;;;;;;;27.47;25.77;;;;;;;;;;5075574;28;20432;-79
2023/06/20 03:21:23;;;;;;;26.60;25.10;;;;;;;;;;5074127;28;20482;-79
2023/06/20 03:23:51;;;;;;;27.27;25.67;;;;;;;;;;5075349;28;20477;-79
2023/06/20 03:26:18;;;;;;;26.57;25.07;;;;;;;;;;5074922;28;20885;-79
2023/06/20 03:28:45;;;;;;;26.43;24.93;;;;;;;;;;5075043;28;20830;-79
2023/06/20 03:31:12;;;;;;;26.60;25.10;;;;;;;;;;5075281;28;20469;-78
2023/06/20 03:33:39;;;;;;;28.33;26.53;;;;;;;;;;5075948;28;20424;-80
2023/06/20 03:36:09;;;;;;;27.37;25.60;;;;;;;;;;5075579;28;20474;-79
2023/06/20 03:38:36;;;;;;;27.03;25.43;;;;;;;;;;5075580;28;20428;-80
2023/06/20 03:41:05;;;;;;;28.20;26.60;;;;;;;;;;5074690;28;20904;-80
2023/06/20 03:43:32;;;;;;;27.70;26.03;;;;;;;;;;5075539;28;20499;-81
2023/06/20 03:45:59;;;;;;;27.27;25.67;;;;;;;;;;5074825;28;20453;-80
2023/06/20 03:48:26;;;;;;;26.73;25.20;;;;;;;;;;5075276;28;20928;-80
2023/06/20 03:50:53;;;;;;;28.17;26.37;;;;;;;;;;5074782;28;20962;-81
2023/06/20 03:53:20;;;;;;;28.67;26.97;;;;;;;;;;5074951;28;20470;-80
2023/06/20 03:55:47;;;;;;;26.97;25.30;;;;;;;;;;5074917;28;20507;-80
2023/06/20 03:58:15;;;;;;;27.87;26.37;;;;;;;;;;5074355;28;20498;-80
2023/06/20 04:00:42;;;;;;;28.73;27.13;;;;;;;;;;5074871;28;20499;-80
2023/06/20 04:03:09;;;;;;;28.83;27.13;;;;;;;;;;5074272;28;20424;-80
2023/06/20 04:05:37;;;;;;;28.63;26.83;;;;;;;;;;5073806;28;20485;-80
2023/06/20 04:08:05;;;;;;;28.73;27.03;;;;;;;;;;5074642;28;20457;-80
2023/06/20 04:10:32;;;;;;;28.60;26.90;;;;;;;;;;5077107;28;20452;-80
2023/06/20 04:12:58;;;;;;;27.97;26.17;;;;;;;;;;5076591;28;20420;-80
2023/06/20 04:15:27;;;;;;;30.50;28.23;;;;;;;;;;5075251;28;20470;-81
2023/06/20 04:17:55;;;;;;;28.43;26.73;;;;;;;;;;5075160;28;20510;-81
2023/06/20 04:20:22;;;;;;;29.50;27.77;;;;;;;;;;5074433;28;20452;-79
2023/06/20 04:22:49;;;;;;;28.80;26.90;;;;;;;;;;5075058;28;20576;-81
2023/06/20 04:25:16;;;;;;;28.80;27.00;;;;;;;;;;5074578;28;20491;-80
2023/06/20 04:27:43;;;;;;;28.43;26.73;;;;;;;;;;5074072;28;20484;-80
2023/06/20 04:30:11;;;;;;;29.53;27.63;;;;;;;;;;5074451;28;20878;-81
2023/06/20 04:32:41;;;;;;;30.43;28.53;;;;;;;;;;5074721;28;20455;-80
2023/06/20 04:35:10;;;;;;;29.27;27.37;;;;;;;;;;5074683;28;20528;-80
2023/06/20 04:37:38;;;;;;;29.43;27.63;;;;;;;;;;5074293;28;20432;-80
2023/06/20 04:40:07;;;;;;;30.77;28.80;;;;;;;;;;5074625;28;20514;-80
2023/06/20 04:42:34;;;;;;;31.60;29.50;;;;;;;;;;5078182;28;20429;-80
2023/06/20 04:45:02;;;;;;;30.53;28.53;;;;;;;;;;5078648;28;20456;-80
2023/06/20 04:47:32;;;;;;;30.40;28.37;;;;;;;;;;5078025;28;20499;-81
2023/06/20 04:50:03;;;;;;;29.07;27.37;;;;;;;;;;5078273;28;20505;-78
2023/06/20 04:52:30;;;;;;;29.60;27.70;;;;;;;;;;5077603;28;20466;-79
2023/06/20 04:55:01;;;;;;;30.87;28.97;;;;;;;;;;5078074;28;20436;-80
2023/06/20 04:57:28;;;;;;;30.43;28.63;;;;;;;;;;5077534;28;20739;-79
2023/06/20 04:59:55;;;;;;;28.90;27.10;;;;;;;;;;5078196;28;20499;-78
2023/06/20 05:02:22;;;;;;;29.97;28.17;;;;;;;;;;5076923;28;20453;-80
2023/06/20 05:04:49;;;;;;;30.60;28.80;;;;;;;;;;5077709;28;20995;-80
2023/06/20 05:07:18;;;;;;;28.07;26.47;;;;;;;;;;5077232;28;20448;-80
2023/06/20 05:09:45;;;;;;;29.90;28.03;;;;;;;;;;5077610;28;20420;-80
2023/06/20 05:12:12;;;;;;;29.17;27.27;;;;;;;;;;5077511;28;20478;-79
2023/06/20 05:14:39;;;;;;;27.80;26.17;;;;;;;;;;5077691;28;20441;-80
2023/06/20 05:17:06;;;;;;;29.73;27.83;;;;;;;;;;5076687;28;20974;-78
2023/06/20 05:19:33;;;;;;;29.63;27.73;;;;;;;;;;5077210;28;20543;-78
2023/06/20 05:22:00;;;;;;;29.50;27.60;;;;;;;;;;5079425;28;20533;-79
2023/06/20 05:24:29;;;;;;;29.90;27.90;;;;;;;;;;5078605;28;20481;-79
2023/06/20 05:26:56;;;;;;;30.53;28.73;;;;;;;;;;5077953;28;20938;-80
2023/06/20 05:29:23;;;;;;;30.03;27.80;;;;;;;;;;5078188;28;20916;-79
2023/06/20 05:31:50;;;;;;;29.97;28.03;;;;;;;;;;5077017;28;20481;-80
2023/06/20 05:34:17;;;;;;;30.83;28.77;;;;;;;;;;5077943;28;20483;-81
2023/06/20 05:36:44;;;;;;;29.80;27.80;;;;;;;;;;5076639;28;20842;-80
2023/06/20 05:39:11;;;;;;;30.67;28.67;;;;;;;;;;5077899;28;20473;-77
2023/06/20 05:41:39;;;;;;;31.07;29.07;;;;;;;;;;5076353;28;20514;-78
2023/06/20 05:44:06;;;;;;;28.80;27.00;;;;;;;;;;5076833;28;20432;-79
2023/06/20 05:46:33;;;;;;;30.17;28.07;;;;;;;;;;5076474;28;21060;-79
2023/06/20 05:49:00;;;;;;;30.20;28.20;;;;;;;;;;5077187;28;20472;-79
2023/06/20 05:51:27;;;;;;;29.40;27.60;;;;;;;;;;5075385;28;20944;-78
2023/06/20 05:53:57;;;;;;;30.20;28.30;;;;;;;;;;5075935;28;20568;-80
2023/06/20 05:56:24;;;;;;;29.30;27.40;;;;;;;;;;5076443;28;20416;-78
2023/06/20 05:58:52;;;;;;;30.33;28.17;;;;;;;;;;5076847;28;20464;-79
2023/06/20 06:01:19;;;;;;;30.43;28.33;;;;;;;;;;5077298;28;20470;-80
2023/06/20 06:03:47;;;;;;;29.90;28.00;;;;;;;;;;5078995;28;20449;-79
2023/06/20 06:06:14;;;;;;;29.57;27.67;;;;;;;;;;5078199;28;20492;-81
2023/06/20 06:08:41;;;;;;;29.47;27.67;;;;;;;;;;5078450;28;20424;-81
2023/06/20 06:11:09;;;;;;;28.43;26.37;;;;;;;;;;5077298;28;20889;-77
2023/06/20 06:13:38;;;;;;;30.10;28.20;;;;;;;;;;5078334;28;20450;-78
2023/06/20 06:16:06;;;;;;;29.40;27.40;;;;;;;;;;5077678;28;20416;-79
2023/06/20 06:18:33;;;;;;;29.47;27.67;;;;;;;;;;5078204;28;20450;-78
2023/06/20 06:21:00;;;;;;;27.97;26.23;;;;;;;;;;5077217;28;20489;-78
2023/06/20 06:23:28;;;;;;;29.30;27.40;;;;;;;;;;5077683;28;20485;-79
2023/06/20 06:25:55;;;;;;;29.87;27.97;;;;;;;;;;5076412;28;21040;-80
2023/06/20 06:28:23;;;;;;;29.63;27.93;;;;;;;;;;5077649;28;20867;-80
2023/06/20 06:30:50;;;;;;;30.00;28.13;;;;;;;;;;5076769;28;20462;-81
2023/06/20 06:33:19;;;;;;;30.23;28.03;;;;;;;;;;5076070;28;20490;-78
2023/06/20 06:35:47;;;;;;;29.10;27.30;;;;;;;;;;5076997;28;20467;-81
2023/06/20 06:38:14;;;;;;;28.97;27.23;;;;;;;;;;5078569;28;20450;-81
2023/06/20 06:40:42;;;;;;;28.80;26.97;;;;;;;;;;5077041;28;20456;-80
2023/06/20 06:43:09;;;;;;;28.87;27.17;;;;;;;;;;5076576;28;20432;-79
2023/06/20 06:45:37;;;;;;;29.50;27.57;;;;;;;;;;5076364;28;20463;-80
2023/06/20 06:48:04;;;;;;;29.80;27.60;;;;;;;;;;5076639;28;20508;-80
2023/06/20 06:50:32;;;;;;;29.60;27.60;;;;;;;;;;5075413;28;20489;-78
2023/06/20 06:52:59;;;;;;;31.90;29.77;;;;;;;;;;5075863;28;20790;-80
2023/06/20 06:55:26;;;;;;;29.40;27.70;;;;;;;;;;5075523;28;20470;-78
2023/06/20 06:57:53;;;;;;;30.17;28.17;;;;;;;;;;5075508;28;20454;-78
2023/06/20 07:00:21;;;;;;;29.40;27.20;;;;;;;;;;5075162;28;20470;-78
2023/06/20 07:02:48;;;;;;;31.27;29.00;;;;;;;;;;5074024;28;20472;-78
2023/06/20 07:05:15;;;;;;;30.30;28.37;;;;;;;;;;5077041;28;20535;-78
2023/06/20 07:07:43;;;;;;;28.83;26.63;;;;;;;;;;5074583;28;20405;-78
2023/06/20 07:10:10;;;;;;;29.67;27.87;;;;;;;;;;5075445;28;20494;-80
2023/06/20 07:12:37;;;;;;;28.80;26.67;;;;;;;;;;5074460;28;20474;-80
2023/06/20 07:15:05;;;;;;;30.33;28.47;;;;;;;;;;5075102;28;20785;-80
2023/06/20 07:17:32;;;;;;;29.20;27.50;;;;;;;;;;5076965;28;20853;-81
2023/06/20 07:19:59;;;;;;;28.90;27.10;;;;;;;;;;5076648;28;20470;-80
2023/06/20 07:22:26;;;;;;;29.33;27.47;;;;;;;;;;5074980;28;20424;-79
2023/06/20 07:24:54;;;;;;;30.73;28.80;;;;;;;;;;5075480;28;20484;-81
2023/06/20 07:27:21;;;;;;;30.37;28.33;;;;;;;;;;5075552;28;20457;-79
2023/06/20 07:29:48;;;;;;;29.63;27.73;;;;;;;;;;5073905;28;20494;-81
2023/06/20 07:32:16;;;;;;;29.80;27.80;;;;;;;;;;5075571;28;20836;-80
2023/06/20 07:34:43;;;;;;;29.53;27.63;;;;;;;;;;5075140;28;20488;-80
2023/06/20 07:37:10;;;;;;;29.90;27.90;;;;;;;;;;5074332;28;20421;-80
2023/06/20 07:39:40;;;;;;;28.87;27.17;;;;;;;;;;5073895;28;20892;-81
2023/06/20 07:42:09;;;;;;;29.73;28.00;;;;;;;;;;5087559;28;20442;-81
2023/06/20 07:44:36;;;;;;;29.97;28.07;;;;;;;;;;5097616;28;20449;-80
2023/06/20 07:47:03;;;;;;;30.23;28.30;;;;;;;;;;5097548;28;20472;-80
2023/06/20 07:49:30;;;;;;;29.70;27.70;;;;;;;;;;5084077;28;20416;-81
2023/06/20 07:51:57;;;;;;;30.77;28.83;;;;;;;;;;5076012;28;20854;-80
2023/06/20 07:54:25;;;;;;;31.47;29.57;;;;;;;;;;5075527;28;20424;-80
2023/06/20 07:56:52;;;;;;;31.47;29.47;;;;;;;;;;5073966;28;20438;-80
2023/06/20 07:59:20;;;;;;;30.03;28.23;;;;;;;;;;5073604;28;20786;-79
2023/06/20 08:01:47;;;;;;;31.30;29.40;;;;;;;;;;5073463;28;20452;-79
2023/06/20 08:04:14;;;;;;;32.30;30.20;;;;;;;;;;5073943;28;20432;-80
2023/06/20 08:06:41;;;;;;;30.10;28.20;;;;;;;;;;5074017;28;20460;-80
2023/06/20 08:09:08;;;;;;;30.53;28.50;;;;;;;;;;5073869;28;20822;-80
2023/06/20 08:11:35;;;;;;;29.90;27.90;;;;;;;;;;5074666;28;20481;-80
2023/06/20 08:14:02;;;;;;;30.13;28.33;;;;;;;;;;5073799;28;20917;-79
2023/06/20 08:16:31;;;;;;;31.00;29.10;;;;;;;;;;5073727;28;20442;-79
2023/06/20 08:18:58;;;;;;;30.40;28.50;;;;;;;;;;5074526;28;20427;-80
2023/06/20 08:21:25;;;;;;;29.47;27.57;;;;;;;;;;5073781;28;20447;-80
2023/06/20 08:23:52;;;;;;;30.70;28.80;;;;;;;;;;5074047;28;20457;-80
2023/06/20 08:26:19;;;;;;;30.60;28.60;;;;;;;;;;5073338;28;20478;-79
2023/06/20 08:28:46;;;;;;;31.07;29.13;;;;;;;;;;5074042;28;20957;-78
2023/06/20 08:31:15;;;;;;;30.50;28.60;;;;;;;;;;5074510;28;20522;-79
2023/06/20 08:33:43;;;;;;;30.30;28.50;;;;;;;;;;5074175;28;20453;-79
2023/06/20 08:36:11;;;;;;;28.90;27.20;;;;;;;;;;5073417;28;20450;-78
2023/06/20 08:38:38;;;;;;;29.27;27.37;;;;;;;;;;5080050;28;20507;-80
2023/06/20 08:41:09;;;;;;;29.60;27.80;;;;;;;;;;5075066;28;20497;-78
2023/06/20 08:43:36;;;;;;;29.47;27.77;;;;;;;;;;5075066;28;20437;-79
2023/06/20 08:46:03;;;;;;;29.07;27.10;;;;;;;;;;5073509;28;20536;-79
2023/06/20 08:48:30;;;;;;;31.10;29.00;;;;;;;;;;5074556;28;20450;-79
2023/06/20 08:50:58;;;;;;;30.00;27.97;;;;;;;;;;5074444;28;20470;-79
2023/06/20 08:53:26;;;;;;;29.20;27.23;;;;;;;;;;5074199;28;20455;-79
2023/06/20 08:55:54;;;;;;;29.47;27.67;;;;;;;;;;5073350;28;20442;-78
2023/06/20 08:58:22;;;;;;;28.57;26.77;;;;;;;;;;5073878;28;20457;-79
2023/06/20 09:00:49;;;;;;;28.87;26.97;;;;;;;;;;5074089;28;20982;-79
2023/06/20 09:03:16;;;;;;;27.93;26.20;;;;;;;;;;5074379;28;20425;-78
2023/06/20 09:05:45;;;;;;;29.30;27.50;;;;;;;;;;5073119;28;20891;-79
2023/06/20 09:08:14;;;;;;;28.97;26.97;;;;;;;;;;5074100;28;20461;-80
2023/06/20 09:10:41;;;;;;;29.17;27.37;;;;;;;;;;5073832;28;20446;-78
2023/06/20 09:13:09;;;;;;;28.57;26.80;;;;;;;;;;5074979;28;20939;-78
2023/06/20 09:15:37;;;;;;;28.50;26.70;;;;;;;;;;5073419;28;20420;-78
2023/06/20 09:18:06;;;;;;;28.93;27.20;;;;;;;;;;5073032;28;20981;-79
2023/06/20 09:20:33;;;;;;;29.53;27.73;;;;;;;;;;5073443;28;20477;-78
2023/06/20 09:23:01;;;;;;;28.60;26.90;;;;;;;;;;5072940;28;21192;-79
2023/06/20 09:25:30;;;;;;;29.47;27.67;;;;;;;;;;5073281;28;20456;-78
2023/06/20 09:27:58;;;;;;;28.27;26.57;;;;;;;;;;5076661;28;20448;-79
2023/06/20 09:30:29;;;;;;;29.13;27.43;;;;;;;;;;5076332;28;20444;-79
2023/06/20 09:32:56;;;;;;;29.73;27.97;;;;;;;;;;5075678;28;20432;-78
2023/06/20 09:35:24;;;;;;;29.20;27.30;;;;;;;;;;5076052;28;20450;-79
2023/06/20 09:37:53;;;;;;;27.83;26.13;;;;;;;;;;5077123;28;20528;-80
2023/06/20 09:40:21;;;;;;;30.43;28.43;;;;;;;;;;5078582;28;20477;-80
2023/06/20 09:42:49;;;;;;;28.80;27.10;;;;;;;;;;5078276;28;20457;-80
2023/06/20 09:45:18;;;;;;;29.37;27.47;;;;;;;;;;5078050;28;20457;-80
2023/06/20 09:47:46;;;;;;;30.47;28.57;;;;;;;;;;5076365;28;20425;-80
2023/06/20 09:50:16;;;;;;;30.33;28.33;;;;;;;;;;5077506;28;20455;-80
2023/06/20 09:52:45;;;;;;;30.60;28.70;;;;;;;;;;5077220;28;20416;-79
2023/06/20 09:55:12;;;;;;;29.50;27.67;;;;;;;;;;5077463;28;20497;-79
2023/06/20 09:57:42;;;;;;;29.17;27.27;;;;;;;;;;5077424;28;20420;-80
2023/06/20 10:00:13;;;;;;;32.10;30.10;;;;;;;;;;5076760;28;20880;-80
2023/06/20 10:02:42;;;;;;;31.97;30.00;;;;;;;;;;5076660;28;20442;-78
2023/06/20 10:05:10;;;;;;;32.77;30.73;;;;;;;;;;5078118;28;20471;-80
2023/06/20 10:07:38;;;;;;;32.13;29.90;;;;;;;;;;5075728;28;20555;-81
2023/06/20 10:10:05;;;;;;;30.70;28.80;;;;;;;;;;5077382;28;20875;-80
2023/06/20 10:12:33;;;;;;;30.80;28.90;;;;;;;;;;5077358;28;20490;-82
2023/06/20 10:15:00;;;;;;;32.80;30.80;;;;;;;;;;5077114;28;20819;-79
2023/06/20 10:17:32;;;;;;;32.17;30.17;;;;;;;;;;5075447;28;20970;-82
2023/06/20 10:20:00;;;;;;;31.47;29.57;;;;;;;;;;5075831;28;20444;-79
2023/06/20 10:22:33;;;;;;;30.87;28.83;;;;;;;;;;5077977;28;20428;-82
2023/06/20 10:25:02;;;;;;;31.70;29.80;;;;;;;;;;5080526;28;20519;-82
2023/06/20 10:27:29;;;;;;;33.80;31.80;;;;;;;;;;5078925;28;20455;-82
2023/06/20 10:29:56;;;;;;;33.60;31.50;;;;;;;;;;5079802;28;20544;-82
2023/06/20 10:32:23;;;;;;;31.00;29.10;;;;;;;;;;5078649;28;20581;-83
2023/06/20 10:34:53;;;;;;;31.67;29.70;;;;;;;;;;5078209;28;20454;-82
2023/06/20 10:37:35;;;;;;;30.83;29.03;;;;;;;;;;5077323;28;20413;-82
2023/06/20 10:40:04;;;;;;;29.87;28.07;;;;;;;;;;5078043;28;20505;-79
2023/06/20 10:42:41;;;;;;;30.00;28.20;;;;;;;;;;5076053;28;20504;-79
2023/06/20 10:45:22;;;;;;;29.70;27.87;;;;;;;;;;5076164;28;20484;-80
2023/06/20 10:47:50;;;;;;;28.80;27.10;;;;;;;;;;5075164;28;20516;-80
2023/06/20 10:50:18;;;;;;;29.53;27.83;;;;;;;;;;5075490;28;20473;-79
2023/06/20 10:52:45;;;;;;;29.40;27.60;;;;;;;;;;5075248;28;20503;-80
2023/06/20 10:55:14;;;;;;;29.20;27.40;;;;;;;;;;5075405;28;20523;-79
2023/06/20 10:57:45;;;;;;;29.20;27.40;;;;;;;;;;5074277;28;20535;-80
2023/06/20 11:00:14;;;;;;;28.90;27.10;;;;;;;;;;5075282;28;20470;-81
2023/06/20 11:02:41;;;;;;;29.73;27.90;;;;;;;;;;5075147;28;20460;-80
2023/06/20 11:05:10;;;;;;;29.13;27.33;;;;;;;;;;5076037;28;20450;-81
2023/06/20 11:07:52;;;;;;;31.30;29.47;;;;;;;;;;5075923;28;20529;-81
2023/06/20 11:10:20;;;;;;;31.10;29.20;;;;;;;;;;5078698;28;20479;-83
2023/06/20 11:12:47;;;;;;;30.97;29.17;;;;;;;;;;5076186;28;20541;-83
2023/06/20 11:15:22;;;;;;;29.40;27.60;;;;;;;;;;5075672;28;20795;-80
2023/06/20 11:17:49;;;;;;;30.30;28.40;;;;;;;;;;5075243;28;20419;-78
2023/06/20 11:20:17;;;;;;;29.20;27.40;;;;;;;;;;5076032;28;20528;-79
2023/06/20 11:22:44;;;;;;;30.07;28.27;;;;;;;;;;5075253;28;20450;-83
2023/06/20 11:25:12;;;;;;;29.77;27.97;;;;;;;;;;5075288;28;20455;-83
2023/06/20 11:27:39;;;;;;;30.40;28.60;;;;;;;;;;5074332;28;20464;-79
2023/06/20 11:30:07;;;;;;;30.07;28.17;;;;;;;;;;5074191;28;20484;-78
2023/06/20 11:32:34;;;;;;;30.57;28.77;;;;;;;;;;5073696;28;20436;-78
2023/06/20 11:35:03;;;;;;;30.13;28.33;;;;;;;;;;5074100;28;20472;-78
2023/06/20 11:37:30;;;;;;;28.87;26.90;;;;;;;;;;5072923;28;20541;-80
2023/06/20 11:39:57;;;;;;;29.93;27.90;;;;;;;;;;5073476;28;20466;-80
2023/06/20 11:42:26;;;;;;;31.00;29.20;;;;;;;;;;5074063;28;20424;-78
2023/06/20 11:44:53;;;;;;;29.87;28.07;;;;;;;;;;5073676;28;20931;-78
2023/06/20 11:47:20;;;;;;;30.50;28.60;;;;;;;;;;5073438;28;20493;-79
2023/06/20 11:49:48;;;;;;;29.47;27.67;;;;;;;;;;5073787;28;20440;-78
2023/06/20 11:52:15;;;;;;;30.10;28.27;;;;;;;;;;5073955;28;20500;-78
2023/06/20 11:54:49;;;;;;;30.40;28.60;;;;;;;;;;5072894;28;20837;-78
2023/06/20 11:57:27;;;;;;;30.80;28.90;;;;;;;;;;5073263;28;20453;-78
2023/06/20 11:59:54;;;;;;;30.23;28.33;;;;;;;;;;5073144;28;20469;-78
2023/06/20 12:02:21;;;;;;;30.00;28.10;;;;;;;;;;5072652;28;20458;-78
2023/06/20 12:04:56;;;;;;;31.83;29.83;;;;;;;;;;5073146;28;20933;-78
2023/06/20 12:07:25;;;;;;;29.60;27.80;;;;;;;;;;5072053;28;20469;-79
2023/06/20 12:09:52;;;;;;;28.13;26.40;;;;;;;;;;5072610;28;20516;-78
2023/06/20 12:12:19;;;;;;;29.60;27.80;;;;;;;;;;5074071;28;20450;-79
2023/06/20 12:14:52;;;;;;;29.47;27.57;;;;;;;;;;5073915;28;20834;-78
2023/06/20 12:17:19;;;;;;;29.80;27.90;;;;;;;;;;5073762;28;20430;-79
2023/06/20 12:19:52;;;;;;;30.40;28.50;;;;;;;;;;5074010;28;20445;-80
2023/06/20 12:22:20;;;;;;;30.10;28.30;;;;;;;;;;5074398;28;20445;-80
2023/06/20 12:24:47;;;;;;;32.47;30.47;;;;;;;;;;5075284;28;20515;-80
2023/06/20 12:27:15;;;;;;;28.97;27.17;;;;;;;;;;5076089;28;20456;-88
2023/06/20 12:29:42;;;;;;;29.80;28.10;;;;;;;;;;5076868;28;20420;-82
2023/06/20 12:32:10;;;;;;;28.20;26.50;;;;;;;;;;5075959;28;20436;-80
2023/06/20 12:34:37;;;;;;;29.50;27.70;;;;;;;;;;5077355;28;20480;-82
2023/06/20 12:37:06;;;;;;;29.70;27.67;;;;;;;;;;5076739;28;20438;-82
2023/06/20 12:39:34;;;;;;;29.10;27.30;;;;;;;;;;5077290;28;20435;-82
2023/06/20 12:42:01;;;;;;;28.87;27.17;;;;;;;;;;5076061;28;20828;-82
2023/06/20 12:44:28;;;;;;;28.00;26.30;;;;;;;;;;5077410;28;20453;-82
2023/06/20 12:46:55;;;;;;;29.13;27.40;;;;;;;;;;5076590;28;20516;-81
2023/06/20 12:49:23;;;;;;;28.63;27.00;;;;;;;;;;5076158;28;20459;-80
2023/06/20 12:51:51;;;;;;;29.60;27.80;;;;;;;;;;5076654;28;20477;-81
2023/06/20 12:54:17;;;;;;;28.90;27.20;;;;;;;;;;5079907;28;20483;-82
2023/06/20 12:56:45;;;;;;;28.97;27.27;;;;;;;;;;5092791;28;20438;-79
2023/06/20 12:59:12;;;;;;;30.27;28.47;;;;;;;;;;5093000;28;21021;-82
2023/06/20 13:01:39;;;;;;;28.83;27.10;;;;;;;;;;5091829;28;20961;-82
2023/06/20 13:04:06;;;;;;;29.67;27.87;;;;;;;;;;5080729;28;20874;-83
2023/06/20 13:06:35;;;;;;;29.80;27.90;;;;;;;;;;5080921;28;20492;-82
2023/06/20 13:09:02;;;;;;;29.27;27.47;;;;;;;;;;5080752;28;20939;-80
2023/06/20 13:11:29;;;;;;;28.23;26.50;;;;;;;;;;5079564;28;21044;-80
2023/06/20 13:13:56;;;;;;;28.37;26.77;;;;;;;;;;5080170;28;20457;-79
2023/06/20 13:16:23;;;;;;;29.30;27.60;;;;;;;;;;5078244;28;20428;-81
2023/06/20 13:18:52;;;;;;;28.23;26.53;;;;;;;;;;5076739;28;20488;-82
2023/06/20 13:21:20;;;;;;;28.20;26.40;;;;;;;;;;5079127;28;20492;-82
2023/06/20 13:23:48;;;;;;;28.60;26.77;;;;;;;;;;5080809;28;20478;-82
2023/06/20 13:26:15;;;;;;;29.27;26.87;;;;;;;;;;5079535;28;20409;-82
2023/06/20 13:28:43;;;;;;;28.73;27.03;;;;;;;;;;5080408;28;20485;-80
2023/06/20 13:31:11;;;;;;;28.70;26.90;;;;;;;;;;5080519;28;20501;-79
2023/06/20 13:33:38;;;;;;;28.83;27.13;;;;;;;;;;5080619;28;20932;-80
2023/06/20 13:36:07;;;;;;;28.30;26.50;;;;;;;;;;5079520;28;20446;-82
2023/06/20 13:38:34;;;;;;;28.03;26.23;;;;;;;;;;5080090;28;20434;-82
2023/06/20 13:41:02;;;;;;;30.27;28.27;;;;;;;;;;5078922;28;20474;-81
2023/06/20 13:43:29;;;;;;;27.60;25.90;;;;;;;;;;5079815;28;20865;-81
2023/06/20 13:45:56;;;;;;;28.53;26.83;;;;;;;;;;5079401;28;20508;-82
2023/06/20 13:48:24;;;;;;;28.57;26.87;;;;;;;;;;5079419;28;20485;-81
2023/06/20 13:50:50;;;;;;;27.97;26.17;;;;;;;;;;5079437;28;20460;-82
2023/06/20 13:53:18;;;;;;;27.57;25.90;;;;;;;;;;5079926;28;20851;-81
2023/06/20 13:55:46;;;;;;;28.37;26.50;;;;;;;;;;5082551;28;20450;-80
2023/06/20 13:58:14;;;;;;;28.60;26.87;;;;;;;;;;5087817;28;20412;-79
2023/06/20 14:00:41;;;;;;;28.20;26.60;;;;;;;;;;5082461;28;20504;-80
2023/06/20 14:03:08;;;;;;;28.10;26.50;;;;;;;;;;5079623;28;20960;-80
2023/06/20 14:05:35;;;;;;;28.33;26.67;;;;;;;;;;5079502;28;20442;-80
2023/06/20 14:08:03;;;;;;;28.40;26.70;;;;;;;;;;5080473;28;20477;-80
2023/06/20 14:10:30;;;;;;;28.10;26.37;;;;;;;;;;5079326;28;20965;-80
2023/06/20 14:12:57;;;;;;;28.73;27.13;;;;;;;;;;5078903;28;20453;-82
2023/06/20 14:15:25;;;;;;;29.47;27.77;;;;;;;;;;5080105;28;21113;-82
2023/06/20 14:17:55;;;;;;;28.37;26.77;;;;;;;;;;5079960;28;20433;-81
2023/06/20 14:20:22;;;;;;;28.07;26.47;;;;;;;;;;5079571;28;20488;-80